Time;durP1;ratioP1;P1;durP2;ratioP2;P2;SDS_P1;SDS_P2;PMS_P1;PMS_P2;Temp;Humidity;BMP_temperature;BMP_pressure;BME280_temperature;BME280_humidity;BME280_pressure;Samples;Min_cycle;Max_cycle;Signal;HPM_P1;HPM_P2
2021/06/04 00:00:30;;;;;;;4.37;3.97;;;13.50;99.90;;;13.92;100.00;95453.00;2190679;56;26865;-65
2021/06/04 00:06:14;;;;;;;4.23;3.83;;;13.70;99.90;;;13.91;100.00;95446.00;2406960;54;33340;-65
2021/06/04 00:09:02;;;;;;;5.23;3.97;;;13.40;99.90;;;13.57;100.00;95451.00;2198561;56;26975;-64
2021/06/04 00:11:53;;;;;;;5.10;4.17;;;13.30;99.90;;;13.46;100.00;95453.00;2192690;56;26686;-64
2021/06/04 00:14:43;;;;;;;4.77;4.33;;;13.20;99.90;;;13.25;100.00;95461.00;2182416;55;26619;-65
2021/06/04 00:17:29;;;;;;;4.77;3.93;;;13.00;99.90;;;13.14;100.00;95470.00;2240548;55;26703;-64
2021/06/04 00:20:23;;;;;;;5.27;4.27;;;13.00;99.90;;;13.07;100.00;95466.00;2244309;56;27178;-65
2021/06/04 00:23:09;;;;;;;4.57;4.17;;;12.90;99.90;;;12.99;100.00;95476.00;2191764;56;26203;-65
2021/06/04 00:25:56;;;;;;;4.30;3.90;;;13.00;99.90;;;13.09;100.00;95471.00;2209988;56;26641;-65
2021/06/04 00:28:43;;;;;;;4.30;3.90;;;12.80;99.90;;;12.91;100.00;95475.00;2269932;55;26784;-64
2021/06/04 00:31:29;;;;;;;4.83;4.33;;;12.50;99.90;;;12.63;100.00;95476.00;2215628;55;27328;-65
2021/06/04 00:37:12;;;;;;;4.73;4.33;;;12.30;99.90;;;12.49;100.00;95475.00;2261046;55;33933;-64
2021/06/04 00:39:58;;;;;;;9.03;4.43;;;12.20;99.90;;;12.33;100.00;95493.00;2157236;57;26698;-65
2021/06/04 00:42:46;;;;;;;7.60;4.30;;;12.20;99.90;;;12.37;100.00;95486.00;2405797;56;26568;-66
2021/06/04 00:45:39;;;;;;;5.67;4.40;;;12.20;99.90;;;12.42;100.00;95489.00;2192033;56;27352;-65
2021/06/04 00:48:27;;;;;;;5.47;4.40;;;12.20;99.90;;;12.33;100.00;95494.00;2190725;56;26763;-65
2021/06/04 00:51:20;;;;;;;5.03;4.50;;;12.10;99.90;;;12.27;100.00;95487.00;2192639;56;26803;-65
2021/06/04 00:54:09;;;;;;;5.00;4.50;;;12.10;99.90;;;12.17;100.00;95480.00;2194464;56;27153;-66
2021/06/04 00:56:56;;;;;;;4.50;4.10;;;11.90;99.90;;;12.15;100.00;95485.00;2405878;56;26327;-66
2021/06/04 00:59:44;;;;;;;7.00;4.30;;;11.90;99.90;;;12.06;100.00;95486.00;2408876;56;26678;-65
2021/06/04 01:02:32;;;;;;;5.97;4.73;;;11.90;99.90;;;12.00;100.00;95487.00;2192352;56;27307;-65
2021/06/04 01:08:36;;;;;;;5.73;4.50;;;11.90;99.90;;;12.01;100.00;95485.00;2214260;55;34453;-66
2021/06/04 01:11:35;;;;;;;5.03;4.53;;;11.80;99.90;;;11.90;100.00;95491.00;2189130;57;27034;-65
2021/06/04 01:14:35;;;;;;;5.00;4.50;;;11.80;99.90;;;11.83;100.00;95493.00;2404634;56;27211;-65
2021/06/04 01:17:30;;;;;;;7.07;4.10;;;11.80;99.90;;;11.83;100.00;95493.00;2304017;56;26750;-66
2021/06/04 01:20:21;;;;;;;5.13;4.60;;;11.70;99.90;;;11.75;100.00;95486.00;2198650;56;26146;-65
2021/06/04 01:23:25;;;;;;;5.77;4.40;;;11.50;99.90;;;11.64;100.00;95497.00;2234944;56;26668;-66
2021/06/04 01:26:17;;;;;;;5.30;4.43;;;11.50;99.90;;;11.60;100.00;95499.00;2258387;55;27385;-66
2021/06/04 01:32:05;;;;;;;8.50;4.77;;;11.60;99.90;;;11.72;100.00;95496.00;2203797;55;34517;-65
2021/06/04 01:37:53;;;;;;;6.93;4.90;;;11.60;99.90;;;11.85;100.00;95499.00;2272914;55;33917;-66
2021/06/04 01:40:42;;;;;;;6.30;4.90;;;11.50;99.90;;;11.65;100.00;95509.00;2385179;55;26674;-66
2021/06/04 01:43:36;;;;;;;5.60;4.17;;;11.50;99.90;;;11.57;100.00;95509.00;2170048;55;27130;-65
2021/06/04 01:46:28;;;;;;;6.07;4.80;;;11.30;99.90;;;11.49;100.00;95509.00;2260374;55;27095;-65
2021/06/04 01:49:20;;;;;;;5.77;5.00;;;11.20;99.90;;;11.41;100.00;95514.00;2217675;56;27220;-65
2021/06/04 01:52:16;;;;;;;5.10;4.60;;;11.20;99.90;;;11.39;100.00;95519.00;2299145;56;26774;-65
2021/06/04 01:55:13;;;;;;;4.87;4.37;;;11.30;99.90;;;11.66;100.00;95506.00;2176644;57;26609;-64
2021/06/04 01:58:08;;;;;;;5.70;4.37;;;11.20;99.90;;;11.42;100.00;95502.00;2178885;57;26162;-65
2021/06/04 02:03:54;;;;;;;5.37;4.60;;;11.20;99.90;;;11.55;100.00;95492.00;2177864;55;34391;-65
2021/06/04 02:06:42;;;;;;;7.70;5.00;;;11.30;99.90;;;11.51;100.00;95507.00;2186414;56;26759;-65
2021/06/04 02:09:29;;;;;;;6.87;4.80;;;11.30;99.90;;;11.53;100.00;95508.00;2239623;55;27299;-66
2021/06/04 02:12:16;;;;;;;4.90;4.40;;;11.20;99.90;;;11.50;100.00;95511.00;2234578;55;26815;-65
2021/06/04 02:15:12;;;;;;;6.43;4.90;;;11.20;99.90;;;11.48;100.00;95513.00;2255606;55;26290;-65
2021/06/04 02:18:06;;;;;;;5.20;4.70;;;11.20;99.90;;;11.48;100.00;95516.00;2238550;55;26659;-65
2021/06/04 02:24:03;;;;;;;5.17;4.53;;;11.10;99.90;;;11.43;100.00;95497.00;2351855;54;33780;-65
2021/06/04 02:26:56;;;;;;;5.23;4.13;;;11.20;99.90;;;11.32;100.00;95516.00;2436700;54;26569;-65
2021/06/04 02:29:50;;;;;;;5.00;4.50;;;11.10;99.90;;;11.24;100.00;95511.00;2215252;55;27190;-66
2021/06/04 02:32:47;;;;;;;5.90;4.70;;;11.10;99.90;;;11.20;100.00;95518.00;2468951;53;26668;-66
2021/06/04 02:35:38;;;;;;;7.50;5.00;;;11.20;99.90;;;11.44;100.00;95511.00;2318813;54;27213;-66
2021/06/04 02:38:30;;;;;;;7.27;5.30;;;11.00;99.90;;;11.12;100.00;95507.00;2449392;53;27297;-66
2021/06/04 02:44:18;;;;;;;6.27;5.23;;;10.80;99.90;;;11.01;100.00;95499.00;2449284;54;34395;-66
2021/06/04 02:47:10;;;;;;;5.57;5.00;;;10.80;99.90;;;10.86;100.00;95517.00;2436964;55;26878;-65
2021/06/04 02:50:00;;;;;;;6.70;5.13;;;10.60;99.90;;;10.77;100.00;95515.00;2399552;55;26786;-66
2021/06/04 02:52:47;;;;;;;5.33;4.83;;;10.60;99.90;;;10.73;100.00;95519.00;2438613;55;26860;-65
2021/06/04 02:55:34;;;;;;;5.50;4.90;;;10.60;99.90;;;10.64;100.00;95521.00;2236325;56;26104;-66
2021/06/04 02:58:20;;;;;;;6.07;4.77;;;10.50;99.90;;;10.60;100.00;95516.00;2290908;55;27319;-63
2021/06/04 03:01:09;;;;;;;5.53;4.97;;;10.70;99.90;;;10.89;100.00;95525.00;2252219;55;26167;-63
2021/06/04 03:04:00;;;;;;;6.77;5.33;;;10.60;99.90;;;10.86;100.00;95515.00;2275034;55;26821;-63
2021/06/04 03:06:52;;;;;;;6.73;5.27;;;10.50;99.90;;;10.62;100.00;95518.00;2230269;55;27305;-63
2021/06/04 03:09:42;;;;;;;8.37;5.77;;;10.50;99.90;;;10.57;100.00;95507.00;2314399;54;27487;-63
2021/06/04 03:15:36;;;;;;;6.93;5.13;;;10.40;99.90;;;10.62;100.00;95499.00;2141081;55;34400;-63
2021/06/04 03:18:29;;;;;;;6.60;5.40;;;10.30;99.90;;;10.42;100.00;95519.00;2140444;56;27113;-63
2021/06/04 03:21:21;;;;;;;6.17;5.50;;;10.20;99.90;;;10.37;100.00;95522.00;2141432;56;26817;-64
2021/06/04 03:27:07;;;;;;;6.20;5.57;;;10.20;99.90;;;10.53;100.00;95508.00;2433103;53;33666;-63
2021/06/04 03:29:54;;;;;;;7.00;5.80;;;10.30;99.90;;;10.46;100.00;95528.00;2261013;53;26823;-63
2021/06/04 03:32:40;;;;;;;6.13;5.53;;;10.30;99.90;;;10.46;100.00;95533.00;2266579;53;26591;-62
2021/06/04 03:35:27;;;;;;;6.77;5.30;;;10.30;99.90;;;10.47;100.00;95542.00;2271137;53;26740;-63
2021/06/04 03:38:16;;;;;;;5.67;5.07;;;10.30;99.90;;;10.49;100.00;95539.00;2266750;53;27117;-62
2021/06/04 03:41:03;;;;;;;6.20;5.00;;;10.30;99.90;;;10.50;100.00;95543.00;2499541;53;27239;-63
2021/06/04 03:43:51;;;;;;;7.83;5.27;;;10.30;99.90;;;10.52;100.00;95549.00;2265397;53;26685;-63
2021/06/04 03:46:38;;;;;;;5.73;5.13;;;10.40;99.90;;;10.59;100.00;95541.00;2307410;53;27066;-63
2021/06/04 03:49:26;;;;;;;5.30;4.80;;;10.60;99.90;;;10.98;100.00;95528.00;2286463;53;26813;-63
2021/06/04 03:52:16;;;;;;;6.37;5.20;;;10.50;99.90;;;10.82;100.00;95533.00;2321674;53;27486;-64
2021/06/04 03:55:05;;;;;;;6.43;5.23;;;10.50;99.90;;;10.78;100.00;95537.00;2271659;54;26642;-64
2021/06/04 03:57:53;;;;;;;7.60;5.10;;;10.50;99.90;;;10.73;100.00;95538.00;2315286;54;26659;-63
2021/06/04 04:03:35;;;;;;;5.33;4.83;;;10.60;99.90;;;10.93;100.00;95536.00;2268035;54;33506;-63
2021/06/04 04:06:22;;;;;;;6.17;5.57;;;10.50;99.90;;;10.85;100.00;95542.00;2218162;56;26736;-63
2021/06/04 04:09:10;;;;;;;5.30;4.80;;;10.50;99.90;;;10.91;100.00;95541.00;2219981;56;26633;-64
2021/06/04 04:11:58;;;;;;;6.70;5.23;;;10.50;99.90;;;10.93;100.00;95541.00;2213157;56;27708;-63
2021/06/04 04:14:45;;;;;;;5.63;4.97;;;10.50;99.90;;;11.04;100.00;95546.00;2210394;55;27087;-63
2021/06/04 04:17:32;;;;;;;5.63;4.80;;;10.60;99.90;;;11.19;100.00;95548.00;2209471;56;27611;-63
2021/06/04 04:20:22;;;;;;;5.37;4.70;;;10.80;99.90;;;11.38;100.00;95546.00;2213328;56;27061;-63
2021/06/04 04:23:11;;;;;;;5.40;4.90;;;10.90;99.90;;;11.60;100.00;95541.00;2213458;56;26850;-64
2021/06/04 04:25:59;;;;;;;8.33;4.90;;;11.10;99.90;;;11.75;100.00;95543.00;2182286;55;26788;-64
2021/06/04 04:28:50;;;;;;;6.63;4.93;;;11.20;99.90;;;11.96;100.00;95535.00;2393469;55;26795;-63
2021/06/04 04:31:41;;;;;;;6.67;4.87;;;11.40;99.90;;;12.21;100.00;95535.00;2179711;55;27085;-63
2021/06/04 04:34:29;;;;;;;7.57;5.00;;;11.60;99.90;;;12.44;100.00;95537.00;2250587;55;26169;-63
2021/06/04 04:37:16;;;;;;;6.27;4.73;;;11.80;99.90;;;12.67;100.00;95524.00;2211120;56;27122;-63
2021/06/04 04:40:06;;;;;;;5.80;4.53;;;12.10;99.90;;;12.92;100.00;95535.00;2437108;55;26654;-63
2021/06/04 04:42:53;;;;;;;6.17;5.20;;;12.30;99.90;;;13.19;100.00;95525.00;2214273;56;26681;-64
2021/06/04 04:45:40;;;;;;;6.23;4.60;;;12.60;99.90;;;13.53;100.00;95530.00;2243665;55;26826;-63
2021/06/04 04:48:26;;;;;;;4.73;4.30;;;12.80;99.90;;;13.91;100.00;95529.00;2358657;55;26114;-63
2021/06/04 04:51:15;;;;;;;5.20;4.70;;;13.20;99.90;;;14.43;100.00;95512.00;2214965;56;26630;-63
2021/06/04 04:54:03;;;;;;;5.85;4.87;;;13.80;99.90;;;15.11;100.00;95520.00;2438287;55;26126;-63
2021/06/04 04:56:50;;;;;;;6.47;4.20;;;15.10;99.90;;;17.73;100.00;95520.00;2219107;56;26689;-65
2021/06/04 04:59:37;;;;;;;4.50;4.10;;;16.90;99.90;;;21.57;100.00;95502.00;2423556;55;26904;-63
2021/06/04 05:02:24;;;;;;;4.20;3.80;;;18.30;99.90;;;24.07;100.00;95507.00;2202990;56;26902;-64
2021/06/04 05:05:13;;;;;;;4.60;4.10;;;19.00;99.90;;;24.26;100.00;95507.00;2314001;55;26789;-63
2021/06/04 05:08:00;;;;;;;4.70;4.00;;;19.40;99.90;;;24.12;100.00;95512.00;2207467;56;26982;-63
2021/06/04 05:10:47;;;;;;;3.78;3.47;;;18.60;99.90;;;21.90;100.00;95510.00;2215835;55;26843;-63
2021/06/04 05:13:34;;;;;;;8.75;4.10;;;18.00;99.90;;;19.90;100.00;95518.00;2205543;56;27104;-62
2021/06/04 05:22:15;;;;;;;4.35;3.75;;;15.70;99.90;;;16.78;100.00;95521.00;2250089;54;34767;-63
2021/06/04 05:25:03;;;;;;;4.72;4.20;;;15.60;99.90;;;16.60;100.00;95526.00;2141949;57;26168;-62
2021/06/04 05:30:50;;;;;;;4.35;3.95;;;15.90;99.90;;;17.19;100.00;95518.00;2422040;55;34120;-63
2021/06/04 05:33:43;;;;;;;4.10;3.70;;;16.00;99.90;;;17.14;100.00;95526.00;2398914;55;26725;-64
2021/06/04 05:36:33;;;;;;;5.32;3.75;;;16.50;99.90;;;17.70;100.00;95526.00;2319351;56;26718;-63
2021/06/04 05:42:21;;;;;;;7.95;4.50;;;17.00;99.90;;;17.90;100.00;95536.00;2193572;56;33722;-63
2021/06/04 05:45:12;;;;;;;6.20;4.00;;;17.00;99.90;;;18.22;100.00;95533.00;2136817;58;26786;-63
2021/06/04 05:47:59;;;;;;;6.43;4.37;;;17.60;99.90;;;18.75;100.00;95534.00;2106817;58;27461;-63
2021/06/04 05:53:42;;;;;;;6.32;4.18;;;18.10;99.90;;;19.62;100.00;95528.00;2421951;54;33697;-62
2021/06/04 05:56:29;;;;;;;5.95;4.45;;;18.80;99.90;;;19.71;100.00;95535.00;2299099;56;26785;-63
2021/06/04 06:02:14;;;;;;;5.05;4.22;;;18.30;99.90;;;18.85;100.00;95527.00;2262506;54;34445;-62
2021/06/04 06:05:00;;;;;;;5.37;4.07;;;18.10;99.90;;;19.27;100.00;95526.00;2352265;54;26717;-63
2021/06/04 06:07:46;;;;;;;7.45;4.70;;;17.70;99.90;;;18.68;100.00;95536.00;2363525;55;26812;-63
2021/06/04 06:16:28;;;;;;;6.90;4.10;;;18.00;99.90;;;20.05;100.00;95547.00;2374224;55;34137;-63
2021/06/04 06:19:18;;;;;;;6.20;3.97;;;19.10;99.90;;;20.42;100.00;95547.00;2146174;57;26783;-62
2021/06/04 06:22:05;;;;;;;5.87;3.90;;;19.80;99.90;;;20.97;100.00;95546.00;2193716;56;26933;-63
2021/06/04 06:24:51;;;;;;;4.60;3.97;;;20.20;99.90;;;21.29;100.00;95551.00;2179678;57;26676;-62
2021/06/04 06:27:38;;;;;;;6.70;4.20;;;19.00;99.90;;;20.17;100.00;95561.00;2177577;56;26792;-63
2021/06/04 06:30:28;;;;;;;9.50;3.75;;;18.70;99.90;;;20.30;100.00;95548.00;2193174;56;26715;-63
2021/06/04 06:33:16;;;;;;;7.30;3.83;;;19.60;99.90;;;21.42;100.00;95550.00;2226106;55;26955;-62
2021/06/04 06:36:07;;;;;;;5.87;3.60;;;19.90;99.90;;;21.78;100.00;95550.00;2189068;56;26211;-63
2021/06/04 06:38:54;;;;;;;5.30;3.80;;;20.50;99.90;;;22.75;100.00;95546.00;2201514;56;26170;-63
2021/06/04 06:41:43;;;;;;;7.15;3.72;;;21.10;99.90;;;23.44;100.00;95550.00;2184466;56;26732;-62
2021/06/04 06:44:32;;;;;;;5.28;3.42;;;21.20;99.90;;;23.70;100.00;95554.00;2176976;56;26747;-62
2021/06/04 06:47:18;;;;;;;4.10;3.70;;;21.70;99.90;;;24.15;100.00;95557.00;2195077;56;26671;-62
2021/06/04 06:53:08;;;;;;;3.47;2.97;;;23.70;99.90;;;27.58;94.09;95546.00;2386496;54;34539;-62
2021/06/04 06:55:57;;;;;;;5.07;3.35;;;22.60;99.90;;;25.75;99.08;95564.00;2166302;55;26863;-62
2021/06/04 06:58:44;;;;;;;5.93;3.05;;;23.30;99.90;;;25.38;100.00;95567.00;2395846;55;27202;-62
2021/06/04 07:01:31;;;;;;;5.57;3.00;;;23.70;99.90;;;25.99;100.00;95566.00;2126631;57;26895;-62
2021/06/04 07:07:15;;;;;;;3.33;2.90;;;24.40;99.90;;;27.34;91.95;95557.00;2397308;55;33815;-62
2021/06/04 07:10:02;;;;;;;4.75;3.30;;;24.60;99.90;;;26.92;84.48;95559.00;2162465;56;27652;-62
2021/06/04 07:12:49;;;;;;;3.45;3.12;;;24.00;99.90;;;26.56;88.91;95566.00;2374039;56;26776;-64
2021/06/04 07:18:34;;;;;;;5.22;2.90;;;23.40;99.90;;;26.96;95.97;95570.00;2353464;56;34574;-63
2021/06/04 07:24:22;;;;;;;3.30;2.78;;;24.60;99.90;;;26.99;88.68;95565.00;2319611;55;33623;-63
2021/06/04 07:27:09;;;;;;;4.00;2.85;;;24.50;99.90;;;27.20;87.71;95578.00;2365216;56;26638;-63
2021/06/04 07:29:55;;;;;;;7.70;2.75;;;25.20;99.90;;;26.85;82.43;95574.00;2167507;56;26248;-62
2021/06/04 07:32:44;;;;;;;8.25;3.37;;;25.50;99.90;;;27.41;81.29;95575.00;2162122;56;26626;-62
2021/06/04 07:35:33;;;;;;;3.20;2.90;;;25.80;99.90;;;26.88;81.83;95569.00;2190935;56;27362;-62
2021/06/04 07:38:21;;;;;;;3.45;2.78;;;25.10;99.90;;;26.79;84.84;95571.00;2180950;56;26954;-62
2021/06/04 07:41:09;;;;;;;3.72;2.58;;;25.10;99.90;;;26.68;82.51;95569.00;2189199;56;27478;-63
2021/06/04 07:43:56;;;;;;;3.33;2.95;;;24.40;99.90;;;25.75;83.69;95570.00;2164802;56;27270;-62
2021/06/04 07:46:44;;;;;;;3.25;2.58;;;24.30;99.90;;;26.03;85.84;95575.00;2180315;56;26715;-62
2021/06/04 07:49:31;;;;;;;4.22;3.00;;;24.90;99.90;;;26.43;85.91;95571.00;2183974;56;26155;-62
2021/06/04 07:52:17;;;;;;;6.60;2.78;;;24.50;99.90;;;25.64;89.03;95579.00;2196195;56;27076;-62
2021/06/04 07:58:04;;;;;;;3.53;3.22;;;23.10;99.90;;;24.77;100.00;95574.00;2301310;55;33353;-64
2021/06/04 08:00:51;;;;;;;5.82;3.08;;;23.40;99.90;;;25.32;100.00;95578.00;2212086;56;26812;-62
2021/06/04 08:03:41;;;;;;;4.93;2.90;;;23.70;99.90;;;26.03;100.00;95573.00;2212364;55;27209;-63
2021/06/04 08:06:28;;;;;;;3.60;2.75;;;23.90;99.90;;;25.73;93.53;95580.00;2377973;55;26771;-63
2021/06/04 08:09:16;;;;;;;3.35;2.97;;;24.20;99.90;;;26.61;87.88;95576.00;2213178;55;26641;-63
2021/06/04 08:12:05;;;;;;;7.55;2.90;;;24.40;99.90;;;26.84;91.86;95573.00;2286202;55;27226;-63
2021/06/04 08:17:49;;;;;;;3.55;2.83;;;23.90;99.90;;;26.31;100.00;95568.00;2348485;52;33541;-63
2021/06/04 08:23:38;;;;;;;4.07;2.85;;;26.70;99.90;;;29.17;71.10;95559.00;2348208;56;33844;-62
2021/06/04 08:26:30;;;;;;;6.65;2.95;;;27.70;99.90;;;29.01;66.66;95562.00;2153364;58;26713;-62
2021/06/04 08:29:18;;;;;;;6.18;2.95;;;27.40;99.90;;;29.36;65.92;95557.00;2293970;57;27116;-62
2021/06/04 08:32:08;;;;;;;5.05;3.10;;;27.60;99.90;;;29.45;68.85;95560.00;2305402;57;26804;-63
2021/06/04 08:34:54;;;;;;;6.62;2.83;;;26.70;99.90;;;28.19;69.53;95561.00;2120191;59;26813;-63
2021/06/04 08:37:41;;;;;;;5.30;3.42;;;26.20;99.90;;;28.37;76.08;95565.00;2114259;59;26166;-63
2021/06/04 08:40:33;;;;;;;24.77;9.25;;;25.90;99.90;;;28.47;82.94;95555.00;2279541;57;27210;-63
2021/06/04 08:43:42;;;;;;;4.65;3.10;;;25.10;99.90;;;27.58;78.87;95557.00;2117888;58;26193;-63
2021/06/04 08:46:33;;;;;;;10.93;2.90;;;25.70;99.90;;;28.66;69.61;95563.00;2154537;58;27199;-63
2021/06/04 08:52:26;;;;;;;2.55;2.35;;;25.10;99.90;;;28.10;74.04;95557.00;2413853;55;33692;-63
2021/06/04 08:55:36;;;;;;;2.50;2.30;;;26.10;99.90;;;29.33;59.83;95565.00;2228925;55;26022;-63
2021/06/04 08:58:44;;;;;;;2.92;2.58;;;27.80;99.90;;;29.87;52.36;95558.00;2258584;55;26750;-63
2021/06/04 09:01:39;;;;;;;3.87;2.70;;;27.40;99.90;;;29.93;60.76;95556.00;2263112;55;26232;-63
2021/06/04 09:04:31;;;;;;;3.37;3.00;;;27.30;99.90;;;30.08;54.10;95558.00;2223809;55;25166;-63
2021/06/04 09:07:22;;;;;;;2.58;2.35;;;28.00;99.90;;;30.10;52.58;95545.00;2254527;55;26957;-63
2021/06/04 09:13:13;;;;;;;2.95;2.72;;;28.10;99.90;;;30.67;55.74;95561.00;2441083;52;33591;-63
2021/06/04 09:16:07;;;;;;;3.75;2.70;;;27.20;99.90;;;30.04;61.41;95568.00;2359505;53;26340;-61
2021/06/04 09:21:52;;;;;;;3.33;2.90;;;27.50;99.90;;;31.45;51.11;95558.00;2418809;55;33356;-64
2021/06/04 09:24:43;;;;;;;2.95;2.62;;;28.50;99.90;;;31.34;51.72;95560.00;2387463;55;26150;-63
2021/06/04 09:27:37;;;;;;;3.03;2.70;;;28.30;99.90;;;31.11;48.59;95556.00;2199479;55;26891;-63
2021/06/04 09:33:28;;;;;;;6.35;3.00;;;29.80;99.90;;;31.20;50.74;95562.00;2264782;54;33996;-64
2021/06/04 09:36:17;;;;;;;7.05;2.92;;;27.70;99.90;;;31.12;50.93;95560.00;2221566;56;26875;-61
2021/06/04 09:39:25;;;;;;;4.70;2.67;;;27.60;99.90;;;30.72;55.43;95560.00;2213765;56;25600;-61
2021/06/04 09:45:23;;;;;;;4.45;2.97;;;28.40;99.90;;;30.39;52.51;95554.00;2186661;55;34635;-64
2021/06/04 09:48:14;;;;;;;4.00;2.97;;;26.90;99.90;;;29.61;61.79;95564.00;2188164;55;26884;-63
2021/06/04 09:54:27;;;;;;;3.35;3.05;;;28.40;99.90;;;31.24;53.94;95560.00;2258733;55;34387;-64
2021/06/04 10:00:20;;;;;;;5.07;3.03;;;27.70;99.90;;;30.31;54.32;95546.00;2252602;55;32773;-63
2021/06/04 10:06:46;;;;;;;12.60;3.12;;;27.80;99.90;;;31.25;56.54;95545.00;2355310;53;33995;-61
2021/06/04 10:09:40;;;;;;;6.12;2.80;;;28.30;99.90;;;30.75;51.19;95542.00;2478789;54;26180;-62
2021/06/04 10:12:35;;;;;;;3.22;2.92;;;28.40;99.90;;;30.81;57.22;95532.00;2265465;55;25775;-62
2021/06/04 10:15:38;;;;;;;6.55;2.92;;;27.90;99.90;;;30.78;57.00;95533.00;2269241;54;26768;-62
2021/06/04 10:18:32;;;;;;;3.92;3.20;;;27.50;99.90;;;30.51;59.33;95536.00;2269836;54;25092;-63
2021/06/04 10:24:30;;;;;;;3.15;2.85;;;27.40;99.90;;;31.75;50.34;95525.00;2309266;55;33769;-61
2021/06/04 10:30:18;;;;;;;3.30;3.00;;;28.80;99.90;;;31.55;47.04;95523.00;2353293;54;33593;-63
2021/06/04 10:36:10;;;;;;;6.20;2.90;;;29.10;99.90;;;30.39;45.49;95517.00;2164684;55;33906;-63
2021/06/04 10:39:06;;;;;;;5.93;3.00;;;28.30;99.90;;;30.96;52.39;95513.00;2163629;57;26126;-63
2021/06/04 10:45:14;;;;;;;3.90;2.80;;;28.90;99.90;;;31.19;46.21;95503.00;2299586;54;32789;-61
2021/06/04 10:48:42;;;;;;;3.20;2.75;;;28.90;99.90;;;31.13;53.15;95512.00;2230806;55;26122;-62
2021/06/04 10:51:38;;;;;;;3.20;2.90;;;28.40;99.90;;;31.45;50.07;95494.00;2182866;56;25763;-62
2021/06/04 10:54:37;;;;;;;3.30;3.00;;;30.30;99.90;;;34.97;36.74;95494.00;2180616;56;26361;-62
2021/06/04 11:00:32;;;;;;;4.07;2.92;;;32.30;95.40;;;34.17;39.80;95482.00;2365919;55;32970;-62
2021/06/04 11:03:22;;;;;;;3.80;3.00;;;31.10;99.60;;;33.71;41.34;95485.00;2270680;55;25612;-61
2021/06/04 11:09:21;;;;;;;3.53;3.22;;;31.00;98.80;;;33.69;38.42;95477.00;2211198;56;33380;-62
2021/06/04 11:12:22;;;;;;;5.07;3.12;;;31.50;96.00;;;34.20;35.45;95479.00;2125774;58;25261;-62
2021/06/04 11:18:20;;;;;;;3.92;2.80;;;33.10;95.60;;;36.03;36.16;95473.00;2290509;53;33149;-62
2021/06/04 11:21:23;;;;;;;2.92;2.72;;;33.50;95.20;;;36.09;33.96;95474.00;2185452;56;25691;-61
2021/06/04 11:24:17;;;;;;;3.40;3.10;;;30.30;97.00;;;32.45;39.29;95465.00;2215217;56;25984;-62
2021/06/04 11:27:05;;;;;;;4.90;2.80;;;31.30;94.80;;;34.47;34.70;95464.00;2213924;56;25624;-62
2021/06/04 11:33:03;;;;;;;4.43;2.90;;;35.50;92.40;;;41.22;26.62;95463.00;2182593;55;32806;-62
2021/06/04 11:35:54;;;;;;;4.15;2.70;;;37.30;86.10;;;39.82;25.41;95461.00;2240183;55;25948;-62
2021/06/04 11:41:46;;;;;;;3.42;2.75;;;34.70;84.40;;;37.30;28.71;95454.00;2229674;56;32462;-62
2021/06/04 11:44:42;;;;;;;3.25;2.80;;;33.50;89.80;;;36.94;28.71;95451.00;2173337;57;25690;-63
2021/06/04 11:47:38;;;;;;;4.90;2.62;;;33.90;85.50;;;36.88;27.73;95449.00;2190897;57;25692;-62
2021/06/04 11:50:34;;;;;;;3.15;2.62;;;34.90;82.90;;;36.80;26.86;95436.00;2266746;56;26045;-62
2021/06/04 11:53:36;;;;;;;3.20;2.50;;;35.70;81.80;;;37.66;26.38;95431.00;2155629;58;25792;-62
2021/06/04 12:00:01;;;;;;;2.70;2.50;;;36.50;76.10;;;37.53;24.75;95424.00;2389193;55;33036;-64
2021/06/04 12:02:51;;;;;;;2.90;2.60;;;36.60;74.70;;;37.12;25.90;95424.00;2185240;56;25760;-63
2021/06/04 12:05:41;;;;;;;4.45;2.78;;;36.40;77.90;;;36.71;28.00;95433.00;2403999;56;25085;-62
2021/06/04 12:08:45;;;;;;;3.25;2.97;;;35.00;79.90;;;35.83;28.89;95427.00;2422164;55;25586;-64
2021/06/04 12:11:35;;;;;;;2.97;2.70;;;35.60;76.40;;;36.74;26.71;95427.00;2210082;56;26385;-62
2021/06/04 12:14:23;;;;;;;3.33;2.53;;;35.70;78.00;;;37.22;27.08;95424.00;2349821;55;25662;-62
2021/06/04 12:20:40;;;;;;;3.33;2.65;;;31.30;90.20;;;32.37;32.30;95415.00;2415904;53;32135;-63
2021/06/04 12:26:43;;;;;;;4.68;3.00;;;29.90;91.30;;;31.21;38.96;95406.00;2445776;55;34211;-64
2021/06/04 12:29:45;;;;;;;4.30;2.72;;;29.20;90.20;;;30.82;37.98;95396.00;2270243;56;27431;-64
2021/06/04 12:33:04;;;;;;;3.05;2.75;;;30.20;91.10;;;31.36;40.20;95397.00;2358302;56;26844;-64
2021/06/04 12:35:50;;;;;;;3.78;2.60;;;29.40;87.20;;;30.76;37.06;95382.00;2407489;56;26907;-63
2021/06/04 12:38:37;;;;;;;2.50;2.30;;;30.30;85.80;;;30.96;35.33;95385.00;2190100;56;26882;-64
2021/06/04 12:41:25;;;;;;;5.00;2.70;;;29.70;91.00;;;30.95;40.02;95378.00;2402794;55;25675;-63
2021/06/04 12:44:14;;;;;;;5.60;2.72;;;29.50;94.10;;;30.92;46.90;95386.00;2181173;56;27381;-63
2021/06/04 12:47:02;;;;;;;3.60;2.92;;;29.60;94.20;;;31.23;46.84;95384.00;2393002;56;26922;-64
2021/06/04 12:49:49;;;;;;;2.80;2.60;;;29.40;92.90;;;31.19;43.87;95384.00;2174136;56;26784;-64
2021/06/04 12:52:35;;;;;;;5.90;2.53;;;29.60;94.50;;;31.24;48.21;95386.00;2345110;56;27146;-63
2021/06/04 12:55:28;;;;;;;3.42;3.08;;;29.10;91.80;;;30.13;43.22;95384.00;2274028;56;26260;-63
2021/06/04 12:58:19;;;;;;;3.17;2.40;;;29.20;90.90;;;29.75;42.45;95381.00;2295241;56;26697;-63
2021/06/04 13:01:11;;;;;;;4.00;2.83;;;29.40;94.70;;;30.84;48.94;95377.00;2182334;56;25219;-63
2021/06/04 13:04:08;;;;;;;5.50;2.92;;;29.20;94.30;;;30.74;48.47;95385.00;2182755;56;26795;-64
2021/06/04 13:06:58;;;;;;;3.00;2.30;;;28.30;93.60;;;29.59;47.74;95383.00;2182684;56;27315;-64
2021/06/04 13:13:13;;;;;;;3.75;2.53;;;28.60;95.70;;;30.65;52.73;95367.00;2241396;54;34418;-63
2021/06/04 13:16:20;;;;;;;3.35;2.47;;;29.40;93.90;;;31.30;46.03;95371.00;2370048;56;26211;-64
2021/06/04 13:22:24;;;;;;;2.42;2.22;;;28.90;92.80;;;30.51;39.24;95368.00;2261172;55;35146;-63
2021/06/04 13:25:19;;;;;;;3.65;2.37;;;28.80;93.00;;;30.08;45.68;95369.00;2348303;56;27168;-63
2021/06/04 13:31:14;;;;;;;2.85;2.35;;;28.30;89.00;;;30.38;38.38;95369.00;2256570;56;33062;-62
2021/06/04 13:37:07;;;;;;;3.37;2.22;;;28.60;88.70;;;29.64;39.13;95363.00;2414234;55;34327;-63
2021/06/04 13:39:54;;;;;;;2.37;2.15;;;29.00;90.00;;;30.48;38.27;95360.00;2264031;55;26781;-63
2021/06/04 13:45:43;;;;;;;3.35;2.10;;;29.00;93.40;;;31.04;38.28;95354.00;2456309;54;32625;-64
2021/06/04 13:48:33;;;;;;;2.20;2.00;;;29.60;91.20;;;31.42;39.87;95356.00;2435654;55;25711;-63
2021/06/04 13:54:28;;;;;;;3.37;2.20;;;28.60;91.70;;;29.92;42.18;95359.00;2319278;55;32772;-64
2021/06/04 13:57:23;;;;;;;8.60;2.50;;;28.40;92.30;;;29.51;44.38;95364.00;2334252;56;25607;-63
2021/06/04 14:03:19;;;;;;;14.07;2.60;;;25.80;97.90;;;26.04;88.74;95386.00;2415731;55;34062;-61
2021/06/04 14:06:22;;;;;;;11.60;2.60;;;24.50;99.80;;;25.00;100.00;95406.00;2210701;55;27238;-62
2021/06/04 14:09:31;;;;;;;5.93;2.30;;;23.80;99.90;;;24.21;100.00;95433.00;2165799;56;26582;-63
2021/06/04 14:12:30;;;;;;;4.50;2.40;;;23.40;99.90;;;24.01;100.00;95458.00;2309110;56;26947;-63
2021/06/04 14:15:34;;;;;;;7.60;2.50;;;23.00;99.90;;;23.40;100.00;95484.00;2193700;56;26231;-63
2021/06/04 14:21:48;;;;;;;10.10;3.10;;;22.10;99.90;;;22.49;100.00;95495.00;2299291;55;33760;-63
2021/06/04 14:24:54;;;;;;;6.82;2.60;;;21.40;99.90;;;21.70;100.00;95497.00;2286473;56;26820;-63
2021/06/04 14:27:54;;;;;;;5.28;2.72;;;20.70;99.90;;;21.11;100.00;95489.00;2212225;56;26846;-62
2021/06/04 14:36:35;;;;;;;4.15;2.60;;;20.40;99.90;;;20.81;100.00;95465.00;2254696;53;34012;-63
2021/06/04 14:39:41;;;;;;;5.70;2.55;;;20.30;99.90;;;20.93;100.00;95471.00;2302025;55;26680;-62
2021/06/04 14:42:28;;;;;;;7.37;2.60;;;20.30;99.90;;;20.91;100.00;95460.00;2217721;55;26727;-63
2021/06/04 14:45:16;;;;;;;2.75;2.30;;;20.30;99.90;;;21.05;100.00;95466.00;2236756;55;26628;-62